JapanFixed distance
Mukogawa Yurikamome Ultra Marathon
2 May2019
Distance
70km
Finishers
420360 men60 women
Winning time
4:30:41h
Median pace
9.16km/h
Pace distribution
420 finishers · 8.25–15.52 km/h · mean 9.57
Every finisher ran the same 70 km course, so these paces are directly comparable.
Histogram of finisher pace. 420 finishers ranged from 8.25 to 15.52 kilometres per hour, with a mean of 9.57 and a median of 9.16. The busiest band is 8.5 to 9.0 kilometres per hour, with 103 finishers.
Results
Ranks 151–200 of 420
| Rank | Runner | Time | Pace | Cat. | Placing |
|---|---|---|---|---|---|
| 151 | 7:12:03h | 9.72 | M45 | 129th M · 32nd M45 | |
| 152 | 7:12:11h | 9.72 | M45 | 130th M · 33rd M45 | |
| 153 | 7:12:48h | 9.70 | W60 | 23rd F · 1st W60 | |
| 154 | 7:13:14h | 9.70 | M50 | 131st M · 13th M50 | |
| 155 | 京都桂病院 | 7:13:55h | 9.68 | M50 | 132nd M · 14th M50 |
| 156 | 王子サブ愛 | 7:14:01h | 9.68 | M60 | 133rd M · 8th M60 |
| 157 | 7:14:25h | 9.67 | M45 | 134th M · 34th M45 | |
| 158 | 7:14:26h | 9.67 | W40 | 24th F · 5th W40 | |
| 159 | 7:14:27h | 9.67 | M40 | 135th M · 22nd M40 | |
| 160 | HR-R | 7:15:43h | 9.64 | M50 | 136th M · 15th M50 |
| 161 | びわ湖走友会 | 7:16:14h | 9.63 | — | 25th F |
| 162 | 三星海運 | 7:17:04h | 9.61 | M45 | 137th M · 35th M45 |
| 163 | 爆走楽笑会 | 7:17:28h | 9.60 | M45 | 138th M · 36th M45 |
| 164 | Asics | 7:17:57h | 9.59 | M55 | 139th M · 12th M55 |
| 165 | うみがめrc | 7:18:13h | 9.58 | M55 | 140th M · 13th M55 |
| 166 | 東伸工業 | 7:18:16h | 9.58 | M45 | 141st M · 37th M45 |
| 167 | 北摂ランナーズ | 7:18:19h | 9.58 | M35 | 142nd M · 14th M35 |
| 168 | 7:18:23h | 9.58 | M45 | 143rd M · 38th M45 | |
| 169 | 7:18:38h | 9.57 | M40 | 144th M · 23rd M40 | |
| 170 | 7:18:59h | 9.57 | M40 | 145th M · 24th M40 | |
| 171 | 株式会社やわらぎ なごみ鍼灸院 | 7:19:09h | 9.56 | M23 | 146th M · 11th M23 |
| 172 | 狭山池rc | 7:19:28h | 9.56 | M35 | 147th M · 15th M35 |
| 173 | 7:20:07h | 9.54 | M60 | 148th M · 9th M60 | |
| 174 | チーム壁 | 7:20:44h | 9.53 | — | 149th M |
| 175 | 7:21:33h | 9.51 | M55 | 150th M · 14th M55 | |
| 176 | チームマキノ | 7:23:00h | 9.48 | M55 | 151st M · 15th M55 |
| 177 | 金曜走ろう会 | 7:23:00h | 9.48 | W60 | 26th F · 2nd W60 |
| 178 | チームてっちん | 7:23:04h | 9.48 | M45 | 152nd M · 39th M45 |
| 179 | 7:23:28h | 9.47 | — | 153rd M | |
| 180 | Ssランナーズ | 7:23:41h | 9.47 | — | 154th M |
| 181 | 7:24:00h | 9.46 | M40 | 155th M · 25th M40 | |
| 182 | タカトラ | 7:24:36h | 9.45 | M23 | 156th M · 12th M23 |
| 183 | チームはしもと | 7:25:27h | 9.43 | M40 | 157th M · 26th M40 |
| 184 | 大泉緑地rc | 7:25:46h | 9.42 | M60 | 158th M · 10th M60 |
| 185 | ランジョグ近畿 | 7:25:58h | 9.42 | M23 | 159th M · 13th M23 |
| 186 | チーム千光寺osaka | 7:27:26h | 9.39 | — | 160th M |
| 187 | 7:28:01h | 9.38 | — | 161st M | |
| 188 | 浪速ac | 7:28:59h | 9.35 | M50 | 162nd M · 16th M50 |
| 189 | 大阪陸協 | 7:30:12h | 9.33 | W45 | 27th F · 5th W45 |
| 190 | 神戸海星病院 | 7:30:37h | 9.32 | M55 | 163rd M · 16th M55 |
| 191 | 7:30:41h | 9.32 | — | 164th M | |
| 192 | リスクモンスター | 7:30:48h | 9.32 | M45 | 165th M · 40th M45 |
| 193 | 西尾ゼミ | 7:31:53h | 9.29 | — | 166th M |
| 194 | 淀川ランナーズ | 7:32:06h | 9.29 | M55 | 167th M · 17th M55 |
| 195 | 7:32:45h | 9.28 | M45 | 168th M · 41st M45 | |
| 196 | 7:32:56h | 9.27 | — | 169th M | |
| 197 | 7:33:02h | 9.27 | M40 | 170th M · 27th M40 | |
| 198 | 7:33:49h | 9.26 | — | 171st M | |
| 199 | 明石健康クラブ | 7:34:30h | 9.24 | M50 | 172nd M · 17th M50 |
| 200 | 新日造エンジ | 7:34:53h | 9.23 | M45 | 173rd M · 42nd M45 |
- 151129th M · 32nd M45Time7:12:03hPace9.72Cat.M45
- 152130th M · 33rd M45Time7:12:11hPace9.72Cat.M45
- 15323rd F · 1st W60Time7:12:48hPace9.70Cat.W60
- 154131st M · 13th M50Time7:13:14hPace9.70Cat.M50
- 155京都桂病院132nd M · 14th M50Time7:13:55hPace9.68Cat.M50
- 156王子サブ愛133rd M · 8th M60Time7:14:01hPace9.68Cat.M60
- 157134th M · 34th M45Time7:14:25hPace9.67Cat.M45
- 15824th F · 5th W40Time7:14:26hPace9.67Cat.W40
- 159135th M · 22nd M40Time7:14:27hPace9.67Cat.M40
- 160HR-R136th M · 15th M50Time7:15:43hPace9.64Cat.M50
- 161びわ湖走友会25th FTime7:16:14hPace9.63
- 162三星海運137th M · 35th M45Time7:17:04hPace9.61Cat.M45
- 163爆走楽笑会138th M · 36th M45Time7:17:28hPace9.60Cat.M45
- 164Asics139th M · 12th M55Time7:17:57hPace9.59Cat.M55
- 165うみがめrc140th M · 13th M55Time7:18:13hPace9.58Cat.M55
- 166東伸工業141st M · 37th M45Time7:18:16hPace9.58Cat.M45
- 167北摂ランナーズ142nd M · 14th M35Time7:18:19hPace9.58Cat.M35
- 168143rd M · 38th M45Time7:18:23hPace9.58Cat.M45
- 169144th M · 23rd M40Time7:18:38hPace9.57Cat.M40
- 170145th M · 24th M40Time7:18:59hPace9.57Cat.M40
- 171株式会社やわらぎ なごみ鍼灸院146th M · 11th M23Time7:19:09hPace9.56Cat.M23
- 172狭山池rc147th M · 15th M35Time7:19:28hPace9.56Cat.M35
- 173148th M · 9th M60Time7:20:07hPace9.54Cat.M60
- 174チーム壁149th MTime7:20:44hPace9.53
- 175150th M · 14th M55Time7:21:33hPace9.51Cat.M55
- 176チームマキノ151st M · 15th M55Time7:23:00hPace9.48Cat.M55
- 177金曜走ろう会26th F · 2nd W60Time7:23:00hPace9.48Cat.W60
- 178チームてっちん152nd M · 39th M45Time7:23:04hPace9.48Cat.M45
- 179153rd MTime7:23:28hPace9.47
- 180Ssランナーズ154th MTime7:23:41hPace9.47
- 181155th M · 25th M40Time7:24:00hPace9.46Cat.M40
- 182タカトラ156th M · 12th M23Time7:24:36hPace9.45Cat.M23
- 183チームはしもと157th M · 26th M40Time7:25:27hPace9.43Cat.M40
- 184大泉緑地rc158th M · 10th M60Time7:25:46hPace9.42Cat.M60
- 185ランジョグ近畿159th M · 13th M23Time7:25:58hPace9.42Cat.M23
- 186チーム千光寺osaka160th MTime7:27:26hPace9.39
- 187161st MTime7:28:01hPace9.38
- 188浪速ac162nd M · 16th M50Time7:28:59hPace9.35Cat.M50
- 189大阪陸協27th F · 5th W45Time7:30:12hPace9.33Cat.W45
- 190神戸海星病院163rd M · 16th M55Time7:30:37hPace9.32Cat.M55
- 191164th MTime7:30:41hPace9.32
- 192リスクモンスター165th M · 40th M45Time7:30:48hPace9.32Cat.M45
- 193西尾ゼミ166th MTime7:31:53hPace9.29
- 194淀川ランナーズ167th M · 17th M55Time7:32:06hPace9.29Cat.M55
- 195168th M · 41st M45Time7:32:45hPace9.28Cat.M45
- 196169th MTime7:32:56hPace9.27
- 197170th M · 27th M40Time7:33:02hPace9.27Cat.M40
- 198171st MTime7:33:49hPace9.26
- 199明石健康クラブ172nd M · 17th M50Time7:34:30hPace9.24Cat.M50
- 200新日造エンジ173rd M · 42nd M45Time7:34:53hPace9.23Cat.M45
Showing ranks 151–200 of 420